Time;durP1;ratioP1;P1;durP2;ratioP2;P2;SDS_P1;SDS_P2;PMS_P1;PMS_P2;Temp;Humidity;BMP_temperature;BMP_pressure;BME280_temperature;BME280_humidity;BME280_pressure;Samples;Min_cycle;Max_cycle;Signal;HPM_P1;HPM_P2
2023/12/16 00:02:04;;;;;;;11.30;8.83;;;;;;;2.31;100.00;99727.69;6268639;28;20217;-46
2023/12/16 00:05:10;;;;;;;9.93;7.23;;;;;;;2.23;100.00;99724.94;6267054;28;20196;-47
2023/12/16 00:08:13;;;;;;;12.83;8.30;;;;;;;2.11;100.00;99732.09;6269367;28;20246;-46
2023/12/16 00:11:15;;;;;;;11.77;8.70;;;;;;;2.01;100.00;99741.78;6250642;28;20244;-46
2023/12/16 00:14:17;;;;;;;11.03;7.70;;;;;;;1.92;100.00;99755.72;6265359;28;20277;-47
2023/12/16 00:17:19;;;;;;;10.40;7.43;;;;;;;1.82;100.00;99750.44;6267667;28;20196;-46
2023/12/16 00:20:22;;;;;;;10.33;7.33;;;;;;;1.78;100.00;99760.44;6265588;28;20193;-46
2023/12/16 00:23:24;;;;;;;10.30;7.73;;;;;;;1.75;100.00;99751.97;6267860;28;20208;-46
2023/12/16 00:26:26;;;;;;;10.63;7.37;;;;;;;1.73;100.00;99751.28;6267988;28;20213;-46
2023/12/16 00:29:28;;;;;;;11.43;7.33;;;;;;;1.65;100.00;99746.69;6268364;28;20769;-46
2023/12/16 00:32:30;;;;;;;11.57;6.90;;;;;;;1.62;100.00;99751.38;6268515;28;20196;-47
2023/12/16 00:35:32;;;;;;;11.43;7.77;;;;;;;1.58;100.00;99745.56;6268415;28;20195;-46
2023/12/16 00:38:34;;;;;;;10.33;7.40;;;;;;;1.54;100.00;99746.78;6268215;28;20195;-46
2023/12/16 00:41:37;;;;;;;10.43;7.77;;;;;;;1.65;100.00;99759.81;6258801;28;20793;-47
2023/12/16 00:44:39;;;;;;;17.53;10.47;;;;;;;1.94;100.00;99754.66;6267366;28;20576;-46
2023/12/16 00:47:41;;;;;;;12.43;8.07;;;;;;;2.05;100.00;99761.56;6268050;28;20663;-46
2023/12/16 00:50:44;;;;;;;11.93;8.80;;;;;;;2.05;100.00;99769.47;6267799;28;20331;-47
2023/12/16 00:53:47;;;;;;;13.90;9.83;;;;;;;2.14;100.00;99765.19;6267871;28;20197;-47
2023/12/16 00:56:49;;;;;;;11.67;8.57;;;;;;;2.10;100.00;99762.00;6267812;28;20219;-47
2023/12/16 00:59:51;;;;;;;11.93;8.27;;;;;;;2.06;100.00;99771.13;6267808;28;20577;-46
2023/12/16 01:02:53;;;;;;;11.60;8.30;;;;;;;2.06;100.00;99776.38;6266673;28;20219;-46
2023/12/16 01:05:56;;;;;;;17.77;11.50;;;;;;;2.33;100.00;99781.00;6265771;28;20684;-48
2023/12/16 01:08:58;;;;;;;13.30;9.70;;;;;;;2.26;100.00;99770.16;6267462;28;20300;-46
2023/12/16 01:12:00;;;;;;;13.87;9.00;;;;;;;2.10;100.00;99755.91;6267260;28;20250;-48
2023/12/16 01:15:03;;;;;;;13.27;8.80;;;;;;;2.04;100.00;99760.75;6267312;28;20720;-47
2023/12/16 01:18:05;;;;;;;12.80;9.73;;;;;;;1.98;100.00;99756.03;6266471;28;20222;-46
2023/12/16 01:21:08;;;;;;;15.77;10.57;;;;;;;1.95;100.00;99761.56;6261516;28;20497;-47
2023/12/16 01:24:10;;;;;;;16.67;11.63;;;;;;;2.09;100.00;99770.84;6267583;28;20213;-47
2023/12/16 01:27:13;;;;;;;17.53;12.03;;;;;;;2.30;100.00;99781.25;6266190;28;20264;-46
2023/12/16 01:30:15;;;;;;;18.60;12.30;;;;;;;2.45;100.00;99782.50;6267377;28;20194;-47
2023/12/16 01:33:17;;;;;;;13.13;10.07;;;;;;;2.25;100.00;99770.31;6266962;28;20196;-48
2023/12/16 01:36:19;;;;;;;13.30;9.17;;;;;;;2.43;100.00;99783.63;6266990;28;20728;-46
2023/12/16 01:39:21;;;;;;;12.60;9.73;;;;;;;2.19;100.00;99763.81;6266621;28;20308;-47
2023/12/16 01:42:23;;;;;;;10.93;8.70;;;;;;;2.44;100.00;99801.06;6266441;28;20213;-47
2023/12/16 01:45:25;;;;;;;14.43;10.33;;;;;;;2.08;100.00;99750.81;6267277;28;20621;-47
2023/12/16 01:48:29;;;;;;;12.67;9.07;;;;;;;2.42;100.00;99795.13;6266504;28;20192;-47
2023/12/16 01:51:32;;;;;;;12.87;9.83;;;;;;;2.35;100.00;99786.09;6248536;28;20670;-46
2023/12/16 01:54:35;;;;;;;12.10;8.80;;;;;;;2.32;100.00;99793.31;6265570;28;20201;-47
2023/12/16 01:57:39;;;;;;;11.97;8.37;;;;;;;2.30;100.00;99787.34;6266607;28;20775;-46
2023/12/16 02:00:53;;;;;;;11.23;8.37;;;;;;;2.28;100.00;99791.91;6249078;28;20201;-47
2023/12/16 02:03:56;;;;;;;11.77;9.63;;;;;;;2.26;100.00;99793.00;6265795;28;20299;-47
2023/12/16 02:06:58;;;;;;;11.47;8.33;;;;;;;2.25;100.00;99797.44;6265076;28;20730;-46
2023/12/16 02:10:01;;;;;;;13.40;8.60;;;;;;;2.24;100.00;99795.78;6266348;28;20193;-50
2023/12/16 02:13:04;;;;;;;11.90;8.73;;;;;;;2.20;100.00;99797.03;6261926;28;20228;-47
2023/12/16 02:16:09;;;;;;;11.90;8.63;;;;;;;2.21;100.00;99806.56;6265543;28;20202;-48
2023/12/16 02:19:13;;;;;;;13.63;8.70;;;;;;;2.02;100.00;99781.09;6263736;28;20188;-48
2023/12/16 02:22:15;;;;;;;10.87;8.70;;;;;;;2.19;100.00;99811.13;6264159;28;20214;-46
2023/12/16 02:25:17;;;;;;;9.50;7.93;;;;;;;2.16;100.00;99803.50;6266259;28;20415;-46
2023/12/16 02:28:20;;;;;;;12.93;8.57;;;;;;;2.15;100.00;99801.84;6265715;28;20305;-45
2023/12/16 02:31:22;;;;;;;12.67;8.73;;;;;;;2.13;100.00;99801.16;6264773;28;20287;-45
2023/12/16 02:34:24;;;;;;;14.73;8.97;;;;;;;2.11;100.00;99803.09;6265985;28;20676;-45
2023/12/16 02:37:26;;;;;;;10.47;7.73;;;;;;;2.10;100.00;99808.50;6266573;28;20623;-46
2023/12/16 02:40:28;;;;;;;10.33;8.37;;;;;;;2.08;100.00;99816.53;6269809;28;20352;-45
2023/12/16 02:43:30;;;;;;;15.10;9.23;;;;;;;2.11;100.00;99815.41;6271128;28;20737;-47
2023/12/16 02:46:32;;;;;;;12.50;8.40;;;;;;;2.13;100.00;99822.19;6269560;28;20585;-46
2023/12/16 02:49:34;;;;;;;12.63;8.87;;;;;;;1.90;100.00;99797.94;6270844;28;20191;-47
2023/12/16 02:52:36;;;;;;;12.30;9.00;;;;;;;2.09;100.00;99830.50;6271353;28;20702;-46
2023/12/16 02:55:38;;;;;;;15.70;9.30;;;;;;;2.08;100.00;99827.03;6270508;28;20198;-49
2023/12/16 02:58:41;;;;;;;12.23;9.03;;;;;;;2.08;100.00;99826.22;6271240;28;20205;-46
2023/12/16 03:01:43;;;;;;;12.33;8.73;;;;;;;2.13;100.00;99845.03;6270764;28;20236;-45
2023/12/16 03:04:46;;;;;;;11.80;8.60;;;;;;;2.14;100.00;99846.69;6269639;28;20732;-45
2023/12/16 03:07:48;;;;;;;14.47;9.40;;;;;;;2.13;100.00;99835.34;6268080;28;20195;-46
2023/12/16 03:10:50;;;;;;;11.23;8.20;;;;;;;2.16;100.00;99842.13;6269909;28;20228;-46
2023/12/16 03:13:52;;;;;;;13.73;9.13;;;;;;;2.16;100.00;99842.94;6257752;28;20888;-46
2023/12/16 03:16:54;;;;;;;10.50;8.30;;;;;;;2.24;100.00;99851.00;6269793;28;20674;-46
2023/12/16 03:19:56;;;;;;;16.13;9.63;;;;;;;2.27;100.00;99848.13;6264323;28;20701;-46
2023/12/16 03:22:59;;;;;;;11.37;8.20;;;;;;;2.26;100.00;99856.94;6268773;28;20249;-47
2023/12/16 03:26:02;;;;;;;10.93;8.63;;;;;;;2.23;100.00;99873.03;6269789;28;20200;-46
2023/12/16 03:29:04;;;;;;;12.67;8.80;;;;;;;2.24;100.00;99861.53;6269422;28;20193;-46
2023/12/16 03:32:06;;;;;;;10.40;7.93;;;;;;;2.24;100.00;99860.69;6267253;28;20684;-46
2023/12/16 03:35:08;;;;;;;11.67;8.33;;;;;;;2.23;100.00;99867.75;6270094;28;20226;-45
2023/12/16 03:38:10;;;;;;;10.73;7.60;;;;;;;2.23;100.00;99870.38;6261095;28;20203;-46
2023/12/16 03:41:13;;;;;;;10.93;7.80;;;;;;;2.21;100.00;99871.47;6269214;28;20662;-45
2023/12/16 03:44:15;;;;;;;12.37;9.03;;;;;;;2.17;100.00;99876.19;6269315;28;20217;-47
2023/12/16 03:47:17;;;;;;;11.23;8.17;;;;;;;2.07;100.00;99862.19;6267380;28;20193;-46
2023/12/16 03:50:19;;;;;;;12.57;8.40;;;;;;;2.17;100.00;99872.69;6268256;28;20582;-46
2023/12/16 03:53:21;;;;;;;11.37;8.50;;;;;;;2.14;100.00;99871.19;6251510;28;20576;-46
2023/12/16 03:56:23;;;;;;;13.70;9.07;;;;;;;1.59;100.00;99781.38;6267488;28;20211;-47
2023/12/16 03:59:25;;;;;;;12.07;8.10;;;;;;;2.19;100.00;99874.25;6269486;28;21141;-47
2023/12/16 04:02:27;;;;;;;11.00;8.13;;;;;;;2.16;100.00;99868.41;6269121;28;20241;-45
2023/12/16 04:05:29;;;;;;;13.03;8.10;;;;;;;2.17;100.00;99867.44;6269273;28;20235;-47
2023/12/16 04:08:31;;;;;;;10.30;7.67;;;;;;;2.12;100.00;99860.00;6268749;28;20267;-46
2023/12/16 04:11:35;;;;;;;11.27;7.93;;;;;;;2.12;100.00;99865.25;6268995;28;20248;-45
2023/12/16 04:14:39;;;;;;;11.43;7.50;;;;;;;2.10;100.00;99858.44;6268961;28;20194;-45
2023/12/16 04:17:41;;;;;;;10.17;7.63;;;;;;;2.05;100.00;99848.31;6268533;28;20201;-47
2023/12/16 04:20:43;;;;;;;9.60;7.37;;;;;;;1.96;100.00;99834.19;6267232;28;20658;-45
2023/12/16 04:23:45;;;;;;;10.33;7.13;;;;;;;2.01;100.00;99857.44;6268619;28;20215;-47
2023/12/16 04:26:48;;;;;;;11.93;8.23;;;;;;;1.99;100.00;99862.00;6268532;28;20189;-47
2023/12/16 04:29:50;;;;;;;9.87;7.70;;;;;;;1.97;100.00;99870.03;6268782;28;20208;-46
2023/12/16 04:32:52;;;;;;;8.13;6.50;;;;;;;1.94;100.00;99867.66;6268413;28;20235;-46
2023/12/16 04:35:54;;;;;;;11.83;7.60;;;;;;;1.92;100.00;99874.00;6267358;28;20197;-46
2023/12/16 04:38:56;;;;;;;10.83;7.97;;;;;;;1.91;100.00;99877.59;6268336;28;20328;-47
2023/12/16 04:41:59;;;;;;;12.43;7.67;;;;;;;1.79;100.00;99859.31;6268219;28;20203;-47
2023/12/16 04:45:01;;;;;;;10.47;7.43;;;;;;;1.84;100.00;99873.84;6267827;28;20412;-46
2023/12/16 04:48:03;;;;;;;13.37;8.30;;;;;;;1.64;100.00;99846.66;6266631;28;20196;-48
2023/12/16 04:51:06;;;;;;;9.43;6.83;;;;;;;1.74;100.00;99877.25;6249021;28;20204;-47
2023/12/16 04:54:09;;;;;;;12.20;7.73;;;;;;;1.55;100.00;99856.97;6267888;28;20190;-46
2023/12/16 04:57:11;;;;;;;12.70;8.80;;;;;;;1.66;100.00;99892.84;6267788;28;20285;-47
2023/12/16 05:00:13;;;;;;;11.17;7.93;;;;;;;1.65;100.00;99901.69;6267952;28;20326;-47
2023/12/16 05:03:16;;;;;;;10.47;7.80;;;;;;;1.64;100.00;99907.09;6267138;28;20258;-48
2023/12/16 05:06:18;;;;;;;10.60;8.40;;;;;;;1.63;100.00;99906.25;6267357;28;20253;-49
2023/12/16 05:09:20;;;;;;;12.93;9.13;;;;;;;1.62;100.00;99917.69;6267243;28;20201;-48
2023/12/16 05:12:22;;;;;;;14.93;9.00;;;;;;;1.75;100.00;99909.63;6268016;28;20244;-49
2023/12/16 05:15:40;;;;;;;12.77;8.93;;;;;;;1.71;100.00;99916.91;6265285;28;20196;-50
2023/12/16 05:18:42;;;;;;;9.90;7.70;;;;;;;1.65;100.00;99925.34;6265846;28;20194;-48
2023/12/16 05:21:44;;;;;;;9.97;7.67;;;;;;;1.54;100.00;99917.53;6266789;28;20196;-46
2023/12/16 05:24:48;;;;;;;14.20;10.27;;;;;;;1.60;100.00;99911.75;6267069;28;20269;-47
2023/12/16 05:27:50;;;;;;;12.87;9.67;;;;;;;1.65;100.00;99920.06;6267402;28;20274;-46
2023/12/16 05:30:52;;;;;;;13.67;8.23;;;;;;;1.58;100.00;99913.69;6262266;28;20202;-48
2023/12/16 05:33:54;;;;;;;14.97;11.03;;;;;;;1.83;100.00;99919.50;6263900;28;20245;-45
2023/12/16 05:36:57;;;;;;;15.40;11.50;;;;;;;2.20;100.00;99920.59;6267300;28;20196;-45
2023/12/16 05:39:59;;;;;;;14.57;9.27;;;;;;;2.26;100.00;99914.81;6266148;28;20655;-47
2023/12/16 05:43:02;;;;;;;11.57;9.33;;;;;;;2.19;100.00;99920.75;6267141;28;20214;-44
2023/12/16 05:46:04;;;;;;;14.10;10.83;;;;;;;2.19;100.00;99924.22;6266181;28;20196;-47
2023/12/16 05:49:06;;;;;;;12.00;8.53;;;;;;;2.21;100.00;99932.78;6267208;28;20204;-46
2023/12/16 05:52:09;;;;;;;15.50;9.37;;;;;;;2.26;100.00;99932.38;6267180;28;20208;-46
2023/12/16 05:55:12;;;;;;;11.90;9.17;;;;;;;2.05;100.00;99898.28;6267247;28;20190;-45
2023/12/16 05:58:14;;;;;;;12.60;9.07;;;;;;;2.10;100.00;99925.00;6265540;28;20205;-48
2023/12/16 06:01:20;;;;;;;11.57;8.57;;;;;;;1.95;100.00;99900.03;6266098;28;20220;-47
2023/12/16 06:04:24;;;;;;;13.23;9.90;;;;;;;2.31;100.00;99941.53;6266814;28;20205;-47
2023/12/16 06:07:26;;;;;;;13.97;8.93;;;;;;;2.31;100.00;99927.56;6266303;28;20265;-46
2023/12/16 06:10:29;;;;;;;13.27;10.10;;;;;;;2.42;100.00;99926.66;6266015;28;20204;-45
2023/12/16 06:13:31;;;;;;;13.43;8.97;;;;;;;2.49;100.00;99939.09;6261782;28;20216;-45
2023/12/16 06:16:33;;;;;;;12.27;9.47;;;;;;;2.49;100.00;99944.38;6263406;28;20206;-49
2023/12/16 06:19:35;;;;;;;14.47;9.23;;;;;;;2.46;100.00;99955.16;6264641;28;20683;-47
2023/12/16 06:22:38;;;;;;;15.07;9.93;;;;;;;2.58;100.00;99953.25;6265713;28;20192;-46
2023/12/16 06:25:40;;;;;;;10.53;8.43;;;;;;;2.53;100.00;99958.09;6265834;28;20206;-46
2023/12/16 06:28:43;;;;;;;12.67;9.50;;;;;;;2.52;100.00;99956.44;6266481;28;20196;-45
2023/12/16 06:31:45;;;;;;;12.17;8.77;;;;;;;2.51;100.00;99937.19;6264600;28;20194;-47
2023/12/16 06:34:47;;;;;;;11.67;9.17;;;;;;;2.58;100.00;99964.63;6265982;28;20190;-45
2023/12/16 06:37:49;;;;;;;15.13;10.20;;;;;;;2.61;100.00;99966.16;6265678;28;20567;-46
2023/12/16 06:40:52;;;;;;;13.23;9.50;;;;;;;2.62;100.00;99969.63;6266425;28;20201;-47
2023/12/16 06:43:54;;;;;;;12.80;9.50;;;;;;;2.62;100.00;99980.16;6266897;28;20220;-46
2023/12/16 06:46:56;;;;;;;12.43;9.03;;;;;;;2.65;100.00;99971.97;6265781;28;20226;-46
2023/12/16 06:49:58;;;;;;;10.53;8.70;;;;;;;2.72;100.00;99979.19;6266202;28;20198;-45
2023/12/16 06:53:00;;;;;;;12.90;9.60;;;;;;;2.77;100.00;99982.25;6266270;28;20202;-45
2023/12/16 06:56:04;;;;;;;12.90;9.37;;;;;;;2.80;100.00;99989.03;6266087;28;20197;-47
2023/12/16 06:59:07;;;;;;;13.77;9.60;;;;;;;2.79;100.00;99985.56;6264075;28;20190;-47
2023/12/16 07:02:09;;;;;;;10.87;8.53;;;;;;;2.79;100.00;99980.31;6265816;28;20568;-48
2023/12/16 07:05:11;;;;;;;10.50;7.97;;;;;;;2.77;100.00;99982.25;6265082;28;20217;-47
2023/12/16 07:08:14;;;;;;;11.10;8.30;;;;;;;2.76;100.00;99980.59;6265241;28;20245;-46
2023/12/16 07:11:17;;;;;;;11.40;8.53;;;;;;;2.83;100.00;99975.63;6264140;28;20242;-45
2023/12/16 07:14:19;;;;;;;10.17;9.10;;;;;;;2.86;100.00;99970.09;6265532;28;20197;-48
2023/12/16 07:17:21;;;;;;;12.00;8.43;;;;;;;2.92;100.00;99966.09;6265708;28;20202;-46
2023/12/16 07:20:24;;;;;;;8.87;7.20;;;;;;;2.93;100.00;99970.38;6263874;28;20576;-48
2023/12/16 07:23:33;;;;;;;10.43;7.37;;;;;;;2.94;100.00;99972.03;6263917;28;20668;-45
2023/12/16 07:26:35;;;;;;;10.10;7.47;;;;;;;2.93;100.00;99965.09;6267857;28;20722;-48
2023/12/16 07:29:38;;;;;;;10.07;7.33;;;;;;;2.91;100.00;99974.97;6251838;28;20867;-46
2023/12/16 07:32:43;;;;;;;9.50;6.43;;;;;;;2.90;100.00;99984.63;6270045;28;20205;-46
2023/12/16 07:35:45;;;;;;;9.63;6.63;;;;;;;2.89;100.00;99997.94;6269398;28;20207;-48
2023/12/16 07:38:47;;;;;;;7.43;6.20;;;;;;;2.90;100.00;99996.97;6269734;28;20609;-47
2023/12/16 07:41:50;;;;;;;9.30;6.53;;;;;;;2.73;100.00;99967.69;6269702;28;20861;-45
2023/12/16 07:44:52;;;;;;;9.23;6.00;;;;;;;3.01;100.00;100007.41;6268510;28;20214;-46
2023/12/16 07:47:54;;;;;;;7.20;5.50;;;;;;;3.01;100.00;99999.50;6268895;28;20653;-46
2023/12/16 07:50:56;;;;;;;6.60;5.53;;;;;;;3.10;100.00;100006.56;6269371;28;20215;-48
2023/12/16 07:53:59;;;;;;;8.10;5.93;;;;;;;3.12;100.00;100014.34;6269616;28;20205;-46
2023/12/16 07:57:01;;;;;;;8.33;6.10;;;;;;;3.44;100.00;99998.25;6268662;28;20271;-48
2023/12/16 08:00:08;;;;;;;6.33;5.17;;;;;;;3.48;100.00;100002.28;6268935;28;20214;-46
2023/12/16 08:03:11;;;;;;;8.00;5.63;;;;;;;3.72;100.00;100002.69;6266763;28;20329;-44
2023/12/16 08:06:17;;;;;;;6.67;4.77;;;;;;;3.70;100.00;99999.38;6269044;28;20210;-46
2023/12/16 08:09:19;;;;;;;9.30;5.60;;;;;;;3.68;100.00;99995.19;6269095;28;20203;-49
2023/12/16 08:12:22;;;;;;;6.30;4.80;;;;;;;3.71;100.00;100008.94;6268597;28;20715;-49
2023/12/16 08:15:24;;;;;;;5.93;4.40;;;;;;;3.64;100.00;100005.19;6269078;28;20192;-49
2023/12/16 08:18:27;;;;;;;4.97;4.47;;;;;;;3.69;100.00;100015.31;6269065;28;20206;-50
2023/12/16 08:21:29;;;;;;;6.23;4.50;;;;;;;3.71;100.00;100024.75;6266291;28;20205;-48
2023/12/16 08:24:32;;;;;;;5.93;3.60;;;;;;;3.71;100.00;100024.75;6268394;28;20293;-46
2023/12/16 08:27:34;;;;;;;4.60;3.63;;;;;;;3.74;100.00;100019.19;6268447;28;20204;-48
2023/12/16 08:30:36;;;;;;;6.30;4.30;;;;;;;3.72;100.00;100026.41;6255119;28;20195;-47
2023/12/16 08:33:38;;;;;;;6.43;4.03;;;;;;;3.76;100.00;100037.50;6268020;28;20190;-48
2023/12/16 08:36:41;;;;;;;5.87;4.40;;;;;;;3.86;100.00;100039.16;6266757;28;20191;-46
2023/12/16 08:39:43;;;;;;;5.27;4.10;;;;;;;3.96;100.00;100043.59;6268496;28;20270;-46
2023/12/16 08:42:45;;;;;;;6.77;4.17;;;;;;;4.01;100.00;100036.94;6267702;28;20196;-46
2023/12/16 08:45:47;;;;;;;5.67;4.30;;;;;;;4.08;100.00;100048.56;6267009;28;20312;-45
2023/12/16 08:48:49;;;;;;;5.67;4.00;;;;;;;4.10;100.00;100059.00;6265156;28;20195;-48
2023/12/16 08:51:53;;;;;;;6.37;4.17;;;;;;;3.95;100.00;100029.59;6266750;28;20678;-48
2023/12/16 08:54:57;;;;;;;6.37;4.63;;;;;;;4.21;100.00;100058.81;6266876;28;20199;-46
2023/12/16 08:57:59;;;;;;;6.07;4.03;;;;;;;4.19;100.00;100054.66;6266399;28;20199;-46
2023/12/16 09:01:03;;;;;;;6.70;4.40;;;;;;;4.47;94.81;100074.03;6267096;28;20693;-46
2023/12/16 09:04:05;;;;;;;5.80;3.83;;;;;;;4.40;97.85;100077.25;6267586;28;20203;-47
2023/12/16 09:07:07;;;;;;;7.23;3.87;;;;;;;4.46;98.17;100080.28;6266415;28;20199;-46
2023/12/16 09:10:09;;;;;;;5.73;3.30;;;;;;;4.49;100.00;100087.94;6266694;28;20206;-45
2023/12/16 09:13:12;;;;;;;4.97;3.47;;;;;;;4.53;99.38;100092.78;6266216;28;20235;-46
2023/12/16 09:16:14;;;;;;;7.80;3.97;;;;;;;4.72;92.78;100080.47;6249098;28;20229;-46
2023/12/16 09:19:16;;;;;;;4.60;3.23;;;;;;;4.75;92.60;100083.66;6264582;28;20229;-45
2023/12/16 09:22:19;;;;;;;4.87;3.63;;;;;;;4.78;95.61;100093.09;6265973;28;20195;-46
2023/12/16 09:25:21;;;;;;;4.93;3.70;;;;;;;4.81;96.46;100088.34;6265932;28;20302;-47
2023/12/16 09:28:23;;;;;;;5.43;4.10;;;;;;;4.76;93.59;100085.31;6266377;28;20304;-45
2023/12/16 09:31:26;;;;;;;4.73;3.57;;;;;;;4.89;94.92;100093.75;6266844;28;20191;-46
2023/12/16 09:34:28;;;;;;;6.37;4.13;;;;;;;4.95;94.06;100100.25;6253760;28;20204;-46
2023/12/16 09:37:30;;;;;;;4.13;3.50;;;;;;;4.99;95.74;100103.44;6266765;28;20289;-49
2023/12/16 09:40:32;;;;;;;5.80;4.00;;;;;;;5.00;97.17;100087.44;6264888;28;20190;-45
2023/12/16 09:43:39;;;;;;;5.53;3.83;;;;;;;5.04;95.76;100094.09;6248571;28;20251;-47
2023/12/16 09:46:42;;;;;;;6.87;4.67;;;;;;;5.08;96.74;100087.53;6245934;28;20225;-48
2023/12/16 09:49:48;;;;;;;5.47;4.47;;;;;;;5.14;98.25;100084.31;6265703;28;20303;-46
2023/12/16 09:52:50;;;;;;;5.63;4.57;;;;;;;5.18;97.93;100071.63;6266882;28;20192;-46
2023/12/16 09:55:52;;;;;;;6.23;4.57;;;;;;;5.23;95.97;100072.03;6266474;28;20201;-47
2023/12/16 09:58:58;;;;;;;7.27;4.87;;;;;;;4.81;96.03;99998.56;6264981;28;20283;-49
2023/12/16 10:02:06;;;;;;;7.13;4.60;;;;;;;5.28;93.67;100055.72;6266811;28;20215;-45
2023/12/16 10:05:11;;;;;;;6.27;4.47;;;;;;;5.24;95.84;100055.19;6266164;28;20236;-45
2023/12/16 10:08:14;;;;;;;7.97;4.83;;;;;;;5.34;93.36;100063.88;6266756;28;20193;-48
2023/12/16 10:11:16;;;;;;;7.63;4.60;;;;;;;5.38;92.24;100044.09;6266001;28;20237;-46
2023/12/16 10:14:18;;;;;;;6.57;4.47;;;;;;;5.50;88.06;100046.50;6266306;28;20191;-46
2023/12/16 10:17:22;;;;;;;8.07;5.17;;;;;;;5.58;88.15;100041.31;6265623;28;20288;-46
2023/12/16 10:20:24;;;;;;;7.07;5.07;;;;;;;5.59;86.08;100046.44;6265646;28;20771;-49
2023/12/16 10:23:28;;;;;;;6.33;4.70;;;;;;;5.66;87.09;100041.38;6264750;28;20291;-47
2023/12/16 10:26:33;;;;;;;7.10;5.07;;;;;;;5.82;87.92;100038.88;6265485;28;20201;-46
2023/12/16 10:29:39;;;;;;;8.03;5.13;;;;;;;6.16;83.79;100043.47;6263069;28;20574;-46
2023/12/16 10:32:55;;;;;;;6.10;4.57;;;;;;;6.30;83.86;100031.44;6266002;28;20663;-48
2023/12/16 10:35:58;;;;;;;8.27;4.97;;;;;;;6.48;77.92;100034.88;6266369;28;20197;-47
2023/12/16 10:39:00;;;;;;;7.70;5.00;;;;;;;6.32;80.22;100011.78;6266216;28;20655;-47
2023/12/16 10:42:03;;;;;;;7.00;4.20;;;;;;;6.48;77.33;100024.28;6265057;28;20206;-47
2023/12/16 10:45:05;;;;;;;5.33;4.00;;;;;;;6.49;77.42;100023.28;6247314;28;20206;-47
2023/12/16 10:48:10;;;;;;;7.47;4.13;;;;;;;6.43;75.55;100021.28;6264867;28;20209;-48
2023/12/16 10:51:19;;;;;;;7.20;4.20;;;;;;;6.50;74.00;100008.22;6265478;28;20254;-45
2023/12/16 10:54:32;;;;;;;4.90;3.70;;;;;;;6.40;76.79;100000.41;6265953;28;20230;-45
2023/12/16 10:57:52;;;;;;;6.90;4.73;;;;;;;6.55;74.35;100004.16;6265596;28;20231;-45
2023/12/16 11:01:05;;;;;;;7.07;4.70;;;;;;;6.43;75.26;99992.97;6251173;28;20676;-45
2023/12/16 11:04:17;;;;;;;6.50;4.53;;;;;;;6.46;74.39;99981.25;6267357;28;20217;-45
2023/12/16 11:07:22;;;;;;;8.70;4.67;;;;;;;6.28;73.79;99981.31;6270752;28;20648;-45
2023/12/16 11:10:25;;;;;;;5.97;4.43;;;;;;;6.09;75.93;99957.72;6270196;28;20200;-47
2023/12/16 11:13:28;;;;;;;7.77;4.87;;;;;;;6.32;73.92;99995.09;6270476;28;20228;-49
2023/12/16 11:16:58;;;;;;;5.73;4.53;;;;;;;6.43;73.31;99987.69;6270226;28;20192;-47
2023/12/16 11:20:06;;;;;;;5.63;4.40;;;;;;;6.32;72.37;99987.16;6266812;28;20774;-47
2023/12/16 11:23:10;;;;;;;5.67;4.13;;;;;;;6.41;73.73;99989.69;6253849;28;20284;-46
2023/12/16 11:26:12;;;;;;;6.23;4.00;;;;;;;6.46;72.10;99989.22;6269616;28;20220;-45
2023/12/16 11:29:15;;;;;;;6.47;4.10;;;;;;;6.53;71.26;99978.81;6268909;28;20200;-44
2023/12/16 11:32:17;;;;;;;9.17;4.23;;;;;;;6.40;72.66;99989.81;6270236;28;20191;-45
2023/12/16 11:35:37;;;;;;;6.77;4.50;;;;;;;6.25;76.26;99986.94;6269826;28;20205;-46
2023/12/16 11:38:42;;;;;;;8.27;4.10;;;;;;;6.26;72.38;99951.56;6270173;28;20195;-45
2023/12/16 11:41:48;;;;;;;5.10;3.80;;;;;;;6.49;71.57;99983.56;6268091;28;20291;-46
2023/12/16 11:44:52;;;;;;;8.30;4.17;;;;;;;6.37;74.67;99976.91;6268628;28;20205;-44
2023/12/16 11:47:55;;;;;;;5.20;4.10;;;;;;;6.46;73.73;99987.38;6269291;28;20231;-45
2023/12/16 11:50:57;;;;;;;6.07;4.50;;;;;;;6.42;72.15;99978.09;6269708;28;20206;-45
2023/12/16 11:54:00;;;;;;;5.77;3.97;;;;;;;6.34;74.00;99978.03;6251819;28;20661;-46
2023/12/16 11:57:02;;;;;;;7.87;4.50;;;;;;;6.42;72.33;99969.31;6269170;28;20193;-45
2023/12/16 12:00:05;;;;;;;6.03;4.13;;;;;;;6.21;73.79;99969.72;6269805;28;20193;-45
2023/12/16 12:03:07;;;;;;;4.37;3.13;;;;;;;6.51;72.02;99964.91;6269332;28;20216;-46
2023/12/16 12:06:09;;;;;;;5.60;3.83;;;;;;;6.43;70.66;99966.50;6268630;28;20212;-48
2023/12/16 12:09:12;;;;;;;5.90;3.60;;;;;;;6.39;72.53;99969.63;6269774;28;20269;-45
2023/12/16 12:12:14;;;;;;;5.00;3.33;;;;;;;6.34;72.46;99954.22;6267265;28;20270;-45
2023/12/16 12:15:16;;;;;;;4.77;3.17;;;;;;;6.24;73.58;99960.63;6269495;28;20257;-46
2023/12/16 12:18:22;;;;;;;4.57;3.20;;;;;;;6.27;74.16;99947.91;6268160;28;20201;-45
2023/12/16 12:21:25;;;;;;;5.03;3.50;;;;;;;6.22;74.18;99952.03;6267087;28;20272;-45
2023/12/16 12:24:27;;;;;;;5.30;3.53;;;;;;;6.16;73.90;99946.38;6267984;28;20673;-44
2023/12/16 12:27:29;;;;;;;7.03;3.50;;;;;;;6.60;71.02;99951.53;6268450;28;20664;-47
2023/12/16 12:30:31;;;;;;;6.77;4.07;;;;;;;6.54;70.45;99946.03;6256015;28;20194;-46
2023/12/16 12:33:35;;;;;;;8.83;4.20;;;;;;;6.45;72.52;99931.91;6267912;28;20656;-45
2023/12/16 12:36:37;;;;;;;6.10;3.90;;;;;;;6.19;75.55;99931.97;6265509;28;20200;-45
2023/12/16 12:39:41;;;;;;;4.80;3.37;;;;;;;6.32;71.53;99932.38;6268323;28;20705;-47
2023/12/16 12:42:54;;;;;;;6.23;3.90;;;;;;;5.90;78.80;99925.19;6267976;28;20674;-45
2023/12/16 12:46:07;;;;;;;4.63;3.17;;;;;;;5.74;80.54;99934.84;6265196;28;20210;-46
2023/12/16 12:49:10;;;;;;;6.50;3.93;;;;;;;5.56;80.56;99934.88;6267974;28;20202;-47
2023/12/16 12:52:12;;;;;;;5.77;3.87;;;;;;;5.61;78.91;99930.78;6265767;28;20660;-49
2023/12/16 12:55:17;;;;;;;6.20;3.60;;;;;;;5.62;79.24;99928.97;6267413;28;20198;-49
2023/12/16 12:58:22;;;;;;;5.27;3.23;;;;;;;5.51;81.38;99931.84;6267777;28;20242;-47
2023/12/16 13:01:31;;;;;;;6.83;3.80;;;;;;;5.40;83.72;99919.72;6264343;28;20191;-46
2023/12/16 13:04:34;;;;;;;5.77;3.50;;;;;;;5.20;84.27;99924.34;6267941;28;20286;-45
2023/12/16 13:07:48;;;;;;;6.23;4.30;;;;;;;5.33;81.19;99916.88;6266979;28;20223;-44
2023/12/16 13:10:51;;;;;;;6.17;4.10;;;;;;;5.41;80.90;99916.09;6267111;28;20203;-45
2023/12/16 13:13:53;;;;;;;5.80;4.27;;;;;;;5.34;82.49;99925.63;6267409;28;20188;-46
2023/12/16 13:16:55;;;;;;;5.83;4.47;;;;;;;5.48;81.11;99919.78;6267175;28;20200;-45
2023/12/16 13:19:57;;;;;;;6.50;3.70;;;;;;;5.21;85.14;99896.94;6265816;28;20196;-46
2023/12/16 13:23:00;;;;;;;7.97;4.30;;;;;;;5.15;86.23;99922.16;6237800;28;20192;-45
2023/12/16 13:26:02;;;;;;;5.27;3.87;;;;;;;5.27;87.03;99917.47;6265282;28;20224;-46
2023/12/16 13:29:05;;;;;;;5.30;4.30;;;;;;;4.44;87.81;99821.81;6266062;28;20208;-46
2023/12/16 13:32:07;;;;;;;5.83;4.10;;;;;;;4.93;88.41;99917.34;6265405;28;20199;-46
2023/12/16 13:35:10;;;;;;;6.13;3.93;;;;;;;4.92;89.57;99916.47;6249684;28;20685;-44
2023/12/16 13:38:12;;;;;;;8.70;5.37;;;;;;;4.86;88.30;99917.09;6263772;28;20203;-45
2023/12/16 13:41:15;;;;;;;5.80;4.50;;;;;;;5.05;87.77;99910.84;6266273;28;20197;-45
2023/12/16 13:44:17;;;;;;;6.47;4.37;;;;;;;5.04;87.92;99911.00;6264611;28;20779;-47
2023/12/16 13:47:19;;;;;;;6.97;4.60;;;;;;;5.02;88.83;99905.84;6265826;28;20191;-46
2023/12/16 13:50:21;;;;;;;7.53;5.47;;;;;;;4.87;88.51;99910.81;6264875;28;20199;-45
2023/12/16 13:53:23;;;;;;;5.90;4.33;;;;;;;4.78;90.03;99897.69;6266078;28;20217;-46
2023/12/16 13:56:26;;;;;;;7.83;4.83;;;;;;;4.60;92.22;99914.34;6264585;28;20655;-46
2023/12/16 13:59:28;;;;;;;7.37;4.77;;;;;;;4.53;92.33;99913.28;6266194;28;20674;-46
2023/12/16 14:02:31;;;;;;;5.80;4.43;;;;;;;4.46;93.31;99911.38;6265974;28;20204;-47
2023/12/16 14:05:33;;;;;;;6.57;4.53;;;;;;;4.57;93.18;99908.53;6265587;28;20297;-46
2023/12/16 14:08:35;;;;;;;7.23;5.30;;;;;;;4.74;89.83;99905.09;6263474;28;20280;-46
2023/12/16 14:11:38;;;;;;;7.73;5.23;;;;;;;4.73;92.31;99910.50;6266232;28;20219;-48
2023/12/16 14:14:40;;;;;;;6.40;4.87;;;;;;;4.65;93.25;99909.44;6266639;28;20277;-49
2023/12/16 14:17:42;;;;;;;7.77;5.37;;;;;;;4.47;94.67;99902.47;6264470;28;20199;-45